sensor_id;sensor_type;location;lat;lon;timestamp;temperature;humidity
7214;DHT22;3648;50.614;13.830;2022-08-21T00:01:57;18.10;1.00
7214;DHT22;3648;50.614;13.830;2022-08-21T00:04:25;18.00;1.00
7214;DHT22;3648;50.614;13.830;2022-08-21T00:06:52;18.00;1.00
7214;DHT22;3648;50.614;13.830;2022-08-21T00:09:20;18.00;1.00
7214;DHT22;3648;50.614;13.830;2022-08-21T00:11:47;18.00;1.00
7214;DHT22;3648;50.614;13.830;2022-08-21T00:14:16;18.00;1.00
7214;DHT22;3648;50.614;13.830;2022-08-21T00:16:43;18.00;1.00
7214;DHT22;3648;50.614;13.830;2022-08-21T00:19:10;18.00;1.00
7214;DHT22;3648;50.614;13.830;2022-08-21T00:21:37;18.00;1.00
7214;DHT22;3648;50.614;13.830;2022-08-21T00:24:05;18.00;1.00
7214;DHT22;3648;50.614;13.830;2022-08-21T00:26:32;18.00;1.00
7214;DHT22;3648;50.614;13.830;2022-08-21T00:28:59;18.00;1.00
7214;DHT22;3648;50.614;13.830;2022-08-21T00:31:27;18.00;1.00
7214;DHT22;3648;50.614;13.830;2022-08-21T00:33:54;18.00;1.00
7214;DHT22;3648;50.614;13.830;2022-08-21T00:36:21;18.00;1.00
7214;DHT22;3648;50.614;13.830;2022-08-21T00:38:48;18.00;1.00
7214;DHT22;3648;50.614;13.830;2022-08-21T00:41:19;18.00;1.00
7214;DHT22;3648;50.614;13.830;2022-08-21T00:43:46;18.00;1.00
7214;DHT22;3648;50.614;13.830;2022-08-21T00:46:13;18.00;1.00
7214;DHT22;3648;50.614;13.830;2022-08-21T00:48:42;18.00;1.00
7214;DHT22;3648;50.614;13.830;2022-08-21T00:51:12;18.00;1.00
7214;DHT22;3648;50.614;13.830;2022-08-21T00:53:42;18.00;1.00
7214;DHT22;3648;50.614;13.830;2022-08-21T00:56:11;18.00;1.00
7214;DHT22;3648;50.614;13.830;2022-08-21T00:58:40;18.00;1.00
7214;DHT22;3648;50.614;13.830;2022-08-21T01:01:09;18.00;1.00
7214;DHT22;3648;50.614;13.830;2022-08-21T01:03:36;18.00;1.00
7214;DHT22;3648;50.614;13.830;2022-08-21T01:06:06;18.00;1.00
7214;DHT22;3648;50.614;13.830;2022-08-21T01:08:35;18.00;1.00
7214;DHT22;3648;50.614;13.830;2022-08-21T01:11:03;18.00;1.00
7214;DHT22;3648;50.614;13.830;2022-08-21T01:13:32;18.00;1.00
7214;DHT22;3648;50.614;13.830;2022-08-21T01:16:03;18.00;1.00
7214;DHT22;3648;50.614;13.830;2022-08-21T01:18:31;18.00;1.00
7214;DHT22;3648;50.614;13.830;2022-08-21T01:21:06;18.00;1.00
7214;DHT22;3648;50.614;13.830;2022-08-21T01:23:34;18.00;1.00
7214;DHT22;3648;50.614;13.830;2022-08-21T01:26:02;17.90;1.00
7214;DHT22;3648;50.614;13.830;2022-08-21T01:28:33;17.90;1.00
7214;DHT22;3648;50.614;13.830;2022-08-21T01:31:01;18.00;1.00
7214;DHT22;3648;50.614;13.830;2022-08-21T01:33:29;18.00;1.00
7214;DHT22;3648;50.614;13.830;2022-08-21T01:35:56;18.00;1.00
7214;DHT22;3648;50.614;13.830;2022-08-21T01:38:25;18.00;1.00
7214;DHT22;3648;50.614;13.830;2022-08-21T01:40:52;18.00;1.00
7214;DHT22;3648;50.614;13.830;2022-08-21T01:43:19;18.00;1.00
7214;DHT22;3648;50.614;13.830;2022-08-21T01:45:46;17.90;1.00
7214;DHT22;3648;50.614;13.830;2022-08-21T01:48:13;17.90;1.00
7214;DHT22;3648;50.614;13.830;2022-08-21T01:50:40;17.90;1.00
7214;DHT22;3648;50.614;13.830;2022-08-21T01:53:07;17.90;1.00
7214;DHT22;3648;50.614;13.830;2022-08-21T01:55:35;17.90;1.00
7214;DHT22;3648;50.614;13.830;2022-08-21T01:58:02;17.90;1.00
7214;DHT22;3648;50.614;13.830;2022-08-21T02:00:29;17.90;1.00
7214;DHT22;3648;50.614;13.830;2022-08-21T02:02:56;18.00;1.00
7214;DHT22;3648;50.614;13.830;2022-08-21T02:05:23;18.00;1.00
7214;DHT22;3648;50.614;13.830;2022-08-21T02:07:52;18.00;1.00
7214;DHT22;3648;50.614;13.830;2022-08-21T02:10:23;18.00;1.00
7214;DHT22;3648;50.614;13.830;2022-08-21T02:12:53;17.90;1.00
7214;DHT22;3648;50.614;13.830;2022-08-21T02:15:20;17.90;1.00
7214;DHT22;3648;50.614;13.830;2022-08-21T02:17:49;17.80;1.00
7214;DHT22;3648;50.614;13.830;2022-08-21T02:20:19;17.80;1.00
7214;DHT22;3648;50.614;13.830;2022-08-21T02:22:46;17.80;1.00
7214;DHT22;3648;50.614;13.830;2022-08-21T02:25:15;17.90;1.00
7214;DHT22;3648;50.614;13.830;2022-08-21T02:27:44;17.90;1.00
7214;DHT22;3648;50.614;13.830;2022-08-21T02:30:16;17.90;1.00
7214;DHT22;3648;50.614;13.830;2022-08-21T02:32:44;17.90;1.00
7214;DHT22;3648;50.614;13.830;2022-08-21T02:35:12;17.90;1.00
7214;DHT22;3648;50.614;13.830;2022-08-21T02:37:44;17.90;1.00
7214;DHT22;3648;50.614;13.830;2022-08-21T02:40:13;17.90;1.00
7214;DHT22;3648;50.614;13.830;2022-08-21T02:42:41;17.90;1.00
7214;DHT22;3648;50.614;13.830;2022-08-21T02:45:10;17.90;1.00
7214;DHT22;3648;50.614;13.830;2022-08-21T02:47:40;17.90;1.00
7214;DHT22;3648;50.614;13.830;2022-08-21T02:50:07;17.80;1.00
7214;DHT22;3648;50.614;13.830;2022-08-21T02:52:34;17.70;1.00
7214;DHT22;3648;50.614;13.830;2022-08-21T02:55:02;17.70;1.00
7214;DHT22;3648;50.614;13.830;2022-08-21T02:57:30;17.80;1.00
7214;DHT22;3648;50.614;13.830;2022-08-21T02:59:58;17.70;1.00
7214;DHT22;3648;50.614;13.830;2022-08-21T03:02:25;17.70;1.00
7214;DHT22;3648;50.614;13.830;2022-08-21T03:04:54;17.70;1.00
7214;DHT22;3648;50.614;13.830;2022-08-21T03:07:21;17.70;1.00
7214;DHT22;3648;50.614;13.830;2022-08-21T03:09:48;17.80;1.00
7214;DHT22;3648;50.614;13.830;2022-08-21T03:12:15;17.80;1.00
7214;DHT22;3648;50.614;13.830;2022-08-21T03:14:42;17.80;1.00
7214;DHT22;3648;50.614;13.830;2022-08-21T03:17:09;17.80;1.00
7214;DHT22;3648;50.614;13.830;2022-08-21T03:19:36;17.80;1.00
7214;DHT22;3648;50.614;13.830;2022-08-21T03:22:05;17.80;1.00
7214;DHT22;3648;50.614;13.830;2022-08-21T03:24:32;17.70;1.00
7214;DHT22;3648;50.614;13.830;2022-08-21T03:26:59;17.80;1.00
7214;DHT22;3648;50.614;13.830;2022-08-21T03:29:26;17.70;1.00
7214;DHT22;3648;50.614;13.830;2022-08-21T03:31:53;17.70;1.00
7214;DHT22;3648;50.614;13.830;2022-08-21T03:34:21;17.70;1.00
7214;DHT22;3648;50.614;13.830;2022-08-21T03:36:48;17.70;1.00
7214;DHT22;3648;50.614;13.830;2022-08-21T03:39:17;17.60;1.00
7214;DHT22;3648;50.614;13.830;2022-08-21T03:41:44;17.60;1.00
7214;DHT22;3648;50.614;13.830;2022-08-21T03:44:11;17.60;1.00
7214;DHT22;3648;50.614;13.830;2022-08-21T03:46:38;17.60;1.00
7214;DHT22;3648;50.614;13.830;2022-08-21T03:49:05;17.60;1.00
7214;DHT22;3648;50.614;13.830;2022-08-21T03:51:32;17.60;1.00
7214;DHT22;3648;50.614;13.830;2022-08-21T03:54:01;17.60;1.00
7214;DHT22;3648;50.614;13.830;2022-08-21T03:56:30;17.60;1.00
7214;DHT22;3648;50.614;13.830;2022-08-21T03:58:57;17.60;1.00
7214;DHT22;3648;50.614;13.830;2022-08-21T04:01:24;17.60;1.00
7214;DHT22;3648;50.614;13.830;2022-08-21T04:03:51;17.60;1.00
7214;DHT22;3648;50.614;13.830;2022-08-21T04:06:18;17.50;1.00
7214;DHT22;3648;50.614;13.830;2022-08-21T04:08:45;17.60;1.00
7214;DHT22;3648;50.614;13.830;2022-08-21T04:11:12;17.50;1.00
7214;DHT22;3648;50.614;13.830;2022-08-21T04:13:41;17.50;1.00
7214;DHT22;3648;50.614;13.830;2022-08-21T04:16:08;17.50;1.00
7214;DHT22;3648;50.614;13.830;2022-08-21T04:18:35;17.50;1.00
7214;DHT22;3648;50.614;13.830;2022-08-21T04:21:03;17.50;1.00
7214;DHT22;3648;50.614;13.830;2022-08-21T04:23:30;17.40;1.00
7214;DHT22;3648;50.614;13.830;2022-08-21T04:25:58;17.50;1.00
7214;DHT22;3648;50.614;13.830;2022-08-21T04:28:26;17.40;1.00
7214;DHT22;3648;50.614;13.830;2022-08-21T04:30:56;17.40;1.00
7214;DHT22;3648;50.614;13.830;2022-08-21T04:33:23;17.40;1.00
7214;DHT22;3648;50.614;13.830;2022-08-21T04:35:51;17.50;1.00
7214;DHT22;3648;50.614;13.830;2022-08-21T04:38:18;17.40;1.00
7214;DHT22;3648;50.614;13.830;2022-08-21T04:40:46;17.40;1.00
7214;DHT22;3648;50.614;13.830;2022-08-21T04:43:14;17.50;1.00
7214;DHT22;3648;50.614;13.830;2022-08-21T04:45:42;17.40;1.00
7214;DHT22;3648;50.614;13.830;2022-08-21T04:48:13;17.40;1.00
7214;DHT22;3648;50.614;13.830;2022-08-21T04:50:44;17.50;1.00
7214;DHT22;3648;50.614;13.830;2022-08-21T04:53:18;17.40;1.00
7214;DHT22;3648;50.614;13.830;2022-08-21T04:55:47;17.50;1.00
7214;DHT22;3648;50.614;13.830;2022-08-21T04:58:17;17.50;1.00
7214;DHT22;3648;50.614;13.830;2022-08-21T05:00:46;17.50;1.00
7214;DHT22;3648;50.614;13.830;2022-08-21T05:03:16;17.50;1.00
7214;DHT22;3648;50.614;13.830;2022-08-21T05:05:44;17.60;1.00
7214;DHT22;3648;50.614;13.830;2022-08-21T05:08:14;17.60;1.00
7214;DHT22;3648;50.614;13.830;2022-08-21T05:10:42;17.60;1.00
7214;DHT22;3648;50.614;13.830;2022-08-21T05:13:10;17.60;1.00
7214;DHT22;3648;50.614;13.830;2022-08-21T05:15:38;17.60;1.00
7214;DHT22;3648;50.614;13.830;2022-08-21T05:18:05;17.60;1.00
7214;DHT22;3648;50.614;13.830;2022-08-21T05:20:34;17.60;1.00
7214;DHT22;3648;50.614;13.830;2022-08-21T05:23:05;17.60;1.00
7214;DHT22;3648;50.614;13.830;2022-08-21T05:25:34;17.60;1.00
7214;DHT22;3648;50.614;13.830;2022-08-21T05:28:01;17.60;1.00
7214;DHT22;3648;50.614;13.830;2022-08-21T05:30:28;17.70;1.00
7214;DHT22;3648;50.614;13.830;2022-08-21T05:32:57;17.70;1.00
7214;DHT22;3648;50.614;13.830;2022-08-21T05:35:25;17.70;1.00
7214;DHT22;3648;50.614;13.830;2022-08-21T05:37:54;17.80;1.00
7214;DHT22;3648;50.614;13.830;2022-08-21T05:40:21;17.80;1.00
7214;DHT22;3648;50.614;13.830;2022-08-21T05:42:49;17.80;1.00
7214;DHT22;3648;50.614;13.830;2022-08-21T05:45:16;17.90;1.00
7214;DHT22;3648;50.614;13.830;2022-08-21T05:47:43;17.90;1.00
7214;DHT22;3648;50.614;13.830;2022-08-21T05:50:11;17.90;1.00
7214;DHT22;3648;50.614;13.830;2022-08-21T05:52:38;17.90;1.00
7214;DHT22;3648;50.614;13.830;2022-08-21T05:55:07;17.90;1.00
7214;DHT22;3648;50.614;13.830;2022-08-21T05:57:34;18.00;1.00
7214;DHT22;3648;50.614;13.830;2022-08-21T06:00:01;18.00;1.00
7214;DHT22;3648;50.614;13.830;2022-08-21T06:02:28;18.00;1.00
7214;DHT22;3648;50.614;13.830;2022-08-21T06:04:57;18.00;1.00
7214;DHT22;3648;50.614;13.830;2022-08-21T06:07:24;18.10;1.00
7214;DHT22;3648;50.614;13.830;2022-08-21T06:09:51;18.10;1.00
7214;DHT22;3648;50.614;13.830;2022-08-21T06:12:19;18.10;1.00
7214;DHT22;3648;50.614;13.830;2022-08-21T06:14:47;18.10;1.00
7214;DHT22;3648;50.614;13.830;2022-08-21T06:17:16;18.10;1.00
7214;DHT22;3648;50.614;13.830;2022-08-21T06:19:43;18.20;1.00
7214;DHT22;3648;50.614;13.830;2022-08-21T06:22:10;18.20;1.00
7214;DHT22;3648;50.614;13.830;2022-08-21T06:24:37;18.20;1.00
7214;DHT22;3648;50.614;13.830;2022-08-21T06:27:05;18.30;1.00
7214;DHT22;3648;50.614;13.830;2022-08-21T06:29:34;18.30;1.00
7214;DHT22;3648;50.614;13.830;2022-08-21T06:32:02;18.30;1.00
7214;DHT22;3648;50.614;13.830;2022-08-21T06:34:30;18.30;1.00
7214;DHT22;3648;50.614;13.830;2022-08-21T06:36:57;18.30;1.00
7214;DHT22;3648;50.614;13.830;2022-08-21T06:39:24;18.30;1.00
7214;DHT22;3648;50.614;13.830;2022-08-21T06:41:51;18.30;1.00
7214;DHT22;3648;50.614;13.830;2022-08-21T06:44:18;18.40;1.00
7214;DHT22;3648;50.614;13.830;2022-08-21T06:46:46;18.50;1.00
7214;DHT22;3648;50.614;13.830;2022-08-21T06:49:13;18.50;1.00
7214;DHT22;3648;50.614;13.830;2022-08-21T06:51:41;18.60;1.00
7214;DHT22;3648;50.614;13.830;2022-08-21T06:54:08;18.60;1.00
7214;DHT22;3648;50.614;13.830;2022-08-21T06:56:36;18.70;1.00
7214;DHT22;3648;50.614;13.830;2022-08-21T06:59:03;18.70;1.00
7214;DHT22;3648;50.614;13.830;2022-08-21T07:01:31;18.70;1.00
7214;DHT22;3648;50.614;13.830;2022-08-21T07:04:00;18.80;1.00
7214;DHT22;3648;50.614;13.830;2022-08-21T07:06:27;18.70;1.00
7214;DHT22;3648;50.614;13.830;2022-08-21T07:08:54;18.80;1.00
7214;DHT22;3648;50.614;13.830;2022-08-21T07:11:23;18.80;1.00
7214;DHT22;3648;50.614;13.830;2022-08-21T07:13:51;18.80;1.00
7214;DHT22;3648;50.614;13.830;2022-08-21T07:16:19;18.80;1.00
7214;DHT22;3648;50.614;13.830;2022-08-21T07:18:47;18.90;1.00
7214;DHT22;3648;50.614;13.830;2022-08-21T07:21:16;18.90;1.00
7214;DHT22;3648;50.614;13.830;2022-08-21T07:23:45;19.00;1.00
7214;DHT22;3648;50.614;13.830;2022-08-21T07:26:15;19.00;1.00
7214;DHT22;3648;50.614;13.830;2022-08-21T07:28:43;19.00;1.00
7214;DHT22;3648;50.614;13.830;2022-08-21T07:31:14;19.00;1.00
7214;DHT22;3648;50.614;13.830;2022-08-21T07:33:42;19.00;1.00
7214;DHT22;3648;50.614;13.830;2022-08-21T07:36:09;19.10;1.00
7214;DHT22;3648;50.614;13.830;2022-08-21T07:38:38;19.10;1.00
7214;DHT22;3648;50.614;13.830;2022-08-21T07:41:13;19.10;1.00
7214;DHT22;3648;50.614;13.830;2022-08-21T07:43:40;19.20;1.00
7214;DHT22;3648;50.614;13.830;2022-08-21T07:46:07;19.20;1.00
7214;DHT22;3648;50.614;13.830;2022-08-21T07:48:34;19.30;1.00
7214;DHT22;3648;50.614;13.830;2022-08-21T07:51:05;19.30;1.00
7214;DHT22;3648;50.614;13.830;2022-08-21T07:53:35;19.40;1.00
7214;DHT22;3648;50.614;13.830;2022-08-21T07:56:05;19.40;1.00
7214;DHT22;3648;50.614;13.830;2022-08-21T07:58:34;19.40;1.00
7214;DHT22;3648;50.614;13.830;2022-08-21T08:01:01;19.40;1.00
7214;DHT22;3648;50.614;13.830;2022-08-21T08:03:28;19.40;1.00
7214;DHT22;3648;50.614;13.830;2022-08-21T08:05:57;19.50;1.00
7214;DHT22;3648;50.614;13.830;2022-08-21T08:08:25;19.50;1.00
7214;DHT22;3648;50.614;13.830;2022-08-21T08:10:53;19.50;1.00
7214;DHT22;3648;50.614;13.830;2022-08-21T08:13:22;19.50;1.00
7214;DHT22;3648;50.614;13.830;2022-08-21T08:15:49;19.60;1.00
7214;DHT22;3648;50.614;13.830;2022-08-21T08:18:16;19.50;1.00
7214;DHT22;3648;50.614;13.830;2022-08-21T08:20:44;19.60;1.00
7214;DHT22;3648;50.614;13.830;2022-08-21T08:23:11;19.60;1.00
7214;DHT22;3648;50.614;13.830;2022-08-21T08:25:40;19.70;1.00
7214;DHT22;3648;50.614;13.830;2022-08-21T08:28:09;19.70;1.00
7214;DHT22;3648;50.614;13.830;2022-08-21T08:30:40;19.80;1.00
7214;DHT22;3648;50.614;13.830;2022-08-21T08:33:08;19.90;1.00
7214;DHT22;3648;50.614;13.830;2022-08-21T08:35:36;19.90;1.00
7214;DHT22;3648;50.614;13.830;2022-08-21T08:38:03;19.90;1.00
7214;DHT22;3648;50.614;13.830;2022-08-21T08:40:35;20.00;1.00
7214;DHT22;3648;50.614;13.830;2022-08-21T08:43:07;20.10;1.00
7214;DHT22;3648;50.614;13.830;2022-08-21T08:45:39;20.00;1.00
7214;DHT22;3648;50.614;13.830;2022-08-21T08:48:14;20.10;1.00
7214;DHT22;3648;50.614;13.830;2022-08-21T08:50:48;20.20;1.00
7214;DHT22;3648;50.614;13.830;2022-08-21T08:53:19;20.20;1.00
7214;DHT22;3648;50.614;13.830;2022-08-21T08:55:52;20.30;1.00
7214;DHT22;3648;50.614;13.830;2022-08-21T08:58:23;20.30;1.00
7214;DHT22;3648;50.614;13.830;2022-08-21T09:00:53;20.30;1.00
7214;DHT22;3648;50.614;13.830;2022-08-21T09:03:22;20.40;1.00
7214;DHT22;3648;50.614;13.830;2022-08-21T09:05:58;20.30;1.00
7214;DHT22;3648;50.614;13.830;2022-08-21T09:08:42;20.40;1.00
7214;DHT22;3648;50.614;13.830;2022-08-21T09:11:21;20.40;1.00
7214;DHT22;3648;50.614;13.830;2022-08-21T09:13:56;20.50;1.00
7214;DHT22;3648;50.614;13.830;2022-08-21T09:16:36;20.60;1.00
7214;DHT22;3648;50.614;13.830;2022-08-21T09:19:11;20.50;1.00
7214;DHT22;3648;50.614;13.830;2022-08-21T09:21:51;20.50;1.00
7214;DHT22;3648;50.614;13.830;2022-08-21T09:24:31;20.40;1.00
7214;DHT22;3648;50.614;13.830;2022-08-21T09:27:02;20.40;1.00
7214;DHT22;3648;50.614;13.830;2022-08-21T09:29:34;20.40;1.00
7214;DHT22;3648;50.614;13.830;2022-08-21T09:32:10;20.40;1.00
7214;DHT22;3648;50.614;13.830;2022-08-21T09:34:38;20.40;1.00
7214;DHT22;3648;50.614;13.830;2022-08-21T09:37:16;20.40;1.00
7214;DHT22;3648;50.614;13.830;2022-08-21T09:39:46;20.40;1.00
7214;DHT22;3648;50.614;13.830;2022-08-21T09:42:22;20.40;1.00
7214;DHT22;3648;50.614;13.830;2022-08-21T09:45:06;20.30;1.00
7214;DHT22;3648;50.614;13.830;2022-08-21T09:47:36;20.30;1.00
7214;DHT22;3648;50.614;13.830;2022-08-21T09:50:14;20.40;1.00
7214;DHT22;3648;50.614;13.830;2022-08-21T09:52:44;20.40;1.00
7214;DHT22;3648;50.614;13.830;2022-08-21T09:55:17;20.40;1.00
7214;DHT22;3648;50.614;13.830;2022-08-21T09:57:59;20.50;1.00
7214;DHT22;3648;50.614;13.830;2022-08-21T10:00:30;20.50;1.00
7214;DHT22;3648;50.614;13.830;2022-08-21T10:03:10;20.60;1.00
7214;DHT22;3648;50.614;13.830;2022-08-21T10:05:38;20.70;1.00
7214;DHT22;3648;50.614;13.830;2022-08-21T10:08:16;20.70;1.00
7214;DHT22;3648;50.614;13.830;2022-08-21T10:10:44;20.60;1.00
7214;DHT22;3648;50.614;13.830;2022-08-21T10:13:14;20.70;1.00
7214;DHT22;3648;50.614;13.830;2022-08-21T10:15:51;20.70;1.00
7214;DHT22;3648;50.614;13.830;2022-08-21T10:18:26;20.80;1.00
7214;DHT22;3648;50.614;13.830;2022-08-21T10:21:02;21.00;1.00
7214;DHT22;3648;50.614;13.830;2022-08-21T10:23:42;21.10;1.00
7214;DHT22;3648;50.614;13.830;2022-08-21T10:26:25;21.20;1.00
7214;DHT22;3648;50.614;13.830;2022-08-21T10:28:57;21.30;1.00
7214;DHT22;3648;50.614;13.830;2022-08-21T10:31:34;21.30;1.00
7214;DHT22;3648;50.614;13.830;2022-08-21T10:34:18;21.50;1.00
7214;DHT22;3648;50.614;13.830;2022-08-21T10:37:00;21.60;1.00
7214;DHT22;3648;50.614;13.830;2022-08-21T10:39:33;21.50;1.00
7214;DHT22;3648;50.614;13.830;2022-08-21T10:42:16;21.40;1.00
7214;DHT22;3648;50.614;13.830;2022-08-21T10:44:53;21.40;1.00
7214;DHT22;3648;50.614;13.830;2022-08-21T10:47:30;21.40;1.00
7214;DHT22;3648;50.614;13.830;2022-08-21T10:50:17;21.30;1.00
7214;DHT22;3648;50.614;13.830;2022-08-21T10:52:56;21.40;1.00
7214;DHT22;3648;50.614;13.830;2022-08-21T10:55:33;21.40;1.00
7214;DHT22;3648;50.614;13.830;2022-08-21T10:58:08;21.40;1.00
7214;DHT22;3648;50.614;13.830;2022-08-21T11:00:43;21.40;1.00
7214;DHT22;3648;50.614;13.830;2022-08-21T11:03:16;21.40;1.00
7214;DHT22;3648;50.614;13.830;2022-08-21T11:05:49;21.40;1.00
7214;DHT22;3648;50.614;13.830;2022-08-21T11:08:21;21.50;1.00
7214;DHT22;3648;50.614;13.830;2022-08-21T11:10:52;21.50;1.00
7214;DHT22;3648;50.614;13.830;2022-08-21T11:13:30;21.50;1.00
7214;DHT22;3648;50.614;13.830;2022-08-21T11:16:05;21.40;1.00
7214;DHT22;3648;50.614;13.830;2022-08-21T11:18:36;21.60;1.00
7214;DHT22;3648;50.614;13.830;2022-08-21T11:21:23;21.70;1.00
7214;DHT22;3648;50.614;13.830;2022-08-21T11:23:57;21.70;1.00
7214;DHT22;3648;50.614;13.830;2022-08-21T11:26:34;21.80;1.00
7214;DHT22;3648;50.614;13.830;2022-08-21T11:29:07;21.80;1.00
7214;DHT22;3648;50.614;13.830;2022-08-21T11:31:45;22.00;1.00
7214;DHT22;3648;50.614;13.830;2022-08-21T11:34:27;22.00;1.00
7214;DHT22;3648;50.614;13.830;2022-08-21T11:37:04;22.10;1.00
7214;DHT22;3648;50.614;13.830;2022-08-21T11:39:37;22.20;1.00
7214;DHT22;3648;50.614;13.830;2022-08-21T11:42:14;22.20;1.00
7214;DHT22;3648;50.614;13.830;2022-08-21T11:44:52;22.30;1.00
7214;DHT22;3648;50.614;13.830;2022-08-21T11:47:32;22.20;1.00
7214;DHT22;3648;50.614;13.830;2022-08-21T11:50:14;22.30;1.00
7214;DHT22;3648;50.614;13.830;2022-08-21T11:52:50;22.30;1.00
7214;DHT22;3648;50.614;13.830;2022-08-21T11:55:23;22.30;1.00
7214;DHT22;3648;50.614;13.830;2022-08-21T11:57:59;22.40;1.00
7214;DHT22;3648;50.614;13.830;2022-08-21T12:00:30;22.50;1.00
7214;DHT22;3648;50.614;13.830;2022-08-21T12:03:07;22.70;1.00
7214;DHT22;3648;50.614;13.830;2022-08-21T12:05:39;22.70;1.00
7214;DHT22;3648;50.614;13.830;2022-08-21T12:08:12;22.70;1.00
7214;DHT22;3648;50.614;13.830;2022-08-21T12:10:45;22.70;1.00
7214;DHT22;3648;50.614;13.830;2022-08-21T12:13:24;22.60;1.00
7214;DHT22;3648;50.614;13.830;2022-08-21T12:15:51;22.70;1.00
7214;DHT22;3648;50.614;13.830;2022-08-21T12:18:22;22.80;1.00
7214;DHT22;3648;50.614;13.830;2022-08-21T12:21:16;22.80;1.00
7214;DHT22;3648;50.614;13.830;2022-08-21T12:23:47;23.00;1.00
7214;DHT22;3648;50.614;13.830;2022-08-21T12:26:24;23.00;1.00
7214;DHT22;3648;50.614;13.830;2022-08-21T12:29:04;23.00;1.00
7214;DHT22;3648;50.614;13.830;2022-08-21T12:31:31;23.00;1.00
7214;DHT22;3648;50.614;13.830;2022-08-21T12:34:01;23.00;1.00
7214;DHT22;3648;50.614;13.830;2022-08-21T12:36:42;23.10;1.00
7214;DHT22;3648;50.614;13.830;2022-08-21T12:39:17;23.10;1.00
7214;DHT22;3648;50.614;13.830;2022-08-21T12:41:49;23.10;1.00
7214;DHT22;3648;50.614;13.830;2022-08-21T12:44:22;23.20;1.00
7214;DHT22;3648;50.614;13.830;2022-08-21T12:46:57;23.20;1.00
7214;DHT22;3648;50.614;13.830;2022-08-21T12:49:28;23.20;1.00
7214;DHT22;3648;50.614;13.830;2022-08-21T12:52:01;23.10;1.00
7214;DHT22;3648;50.614;13.830;2022-08-21T12:54:32;23.00;1.00
7214;DHT22;3648;50.614;13.830;2022-08-21T12:57:05;23.00;1.00
7214;DHT22;3648;50.614;13.830;2022-08-21T12:59:37;23.20;1.00
7214;DHT22;3648;50.614;13.830;2022-08-21T13:02:14;23.20;1.00
7214;DHT22;3648;50.614;13.830;2022-08-21T13:04:44;23.30;1.00
7214;DHT22;3648;50.614;13.830;2022-08-21T13:07:22;23.20;1.00
7214;DHT22;3648;50.614;13.830;2022-08-21T13:09:54;23.20;1.00
7214;DHT22;3648;50.614;13.830;2022-08-21T13:12:22;23.30;1.00
7214;DHT22;3648;50.614;13.830;2022-08-21T13:14:51;23.30;1.00
7214;DHT22;3648;50.614;13.830;2022-08-21T13:17:20;23.30;1.00
7214;DHT22;3648;50.614;13.830;2022-08-21T13:19:55;23.30;1.00
7214;DHT22;3648;50.614;13.830;2022-08-21T13:22:24;23.30;1.00
7214;DHT22;3648;50.614;13.830;2022-08-21T13:24:55;23.30;1.00
7214;DHT22;3648;50.614;13.830;2022-08-21T13:27:24;23.20;1.00
7214;DHT22;3648;50.614;13.830;2022-08-21T13:30:08;23.10;1.00
7214;DHT22;3648;50.614;13.830;2022-08-21T13:32:40;23.20;1.00
7214;DHT22;3648;50.614;13.830;2022-08-21T13:35:15;23.10;1.00
7214;DHT22;3648;50.614;13.830;2022-08-21T13:37:47;23.10;1.00
7214;DHT22;3648;50.614;13.830;2022-08-21T13:40:19;23.10;1.00
7214;DHT22;3648;50.614;13.830;2022-08-21T13:42:47;23.20;1.00
7214;DHT22;3648;50.614;13.830;2022-08-21T13:45:18;23.30;1.00
7214;DHT22;3648;50.614;13.830;2022-08-21T13:47:50;23.20;1.00
7214;DHT22;3648;50.614;13.830;2022-08-21T13:50:20;23.10;1.00
7214;DHT22;3648;50.614;13.830;2022-08-21T13:52:55;23.10;1.00
7214;DHT22;3648;50.614;13.830;2022-08-21T13:55:33;23.00;1.00
7214;DHT22;3648;50.614;13.830;2022-08-21T13:58:04;23.00;1.00
7214;DHT22;3648;50.614;13.830;2022-08-21T14:00:33;23.00;1.00
7214;DHT22;3648;50.614;13.830;2022-08-21T14:03:05;22.90;1.00
7214;DHT22;3648;50.614;13.830;2022-08-21T14:05:35;22.90;1.00
7214;DHT22;3648;50.614;13.830;2022-08-21T14:08:07;22.80;1.00
7214;DHT22;3648;50.614;13.830;2022-08-21T14:10:42;22.90;1.00
7214;DHT22;3648;50.614;13.830;2022-08-21T14:13:29;22.90;1.00
7214;DHT22;3648;50.614;13.830;2022-08-21T14:16:01;22.90;1.00
7214;DHT22;3648;50.614;13.830;2022-08-21T14:18:28;22.80;1.00
7214;DHT22;3648;50.614;13.830;2022-08-21T14:21:06;22.80;1.00
7214;DHT22;3648;50.614;13.830;2022-08-21T14:23:34;22.80;1.00
7214;DHT22;3648;50.614;13.830;2022-08-21T14:26:05;22.70;1.00
7214;DHT22;3648;50.614;13.830;2022-08-21T14:28:34;22.70;1.00
7214;DHT22;3648;50.614;13.830;2022-08-21T14:31:13;22.70;1.00
7214;DHT22;3648;50.614;13.830;2022-08-21T14:33:41;22.80;1.00
7214;DHT22;3648;50.614;13.830;2022-08-21T14:36:12;22.80;1.00
7214;DHT22;3648;50.614;13.830;2022-08-21T14:38:40;22.80;1.00
7214;DHT22;3648;50.614;13.830;2022-08-21T14:41:15;22.70;1.00
7214;DHT22;3648;50.614;13.830;2022-08-21T14:43:43;22.70;1.00
7214;DHT22;3648;50.614;13.830;2022-08-21T14:46:12;22.60;1.00
7214;DHT22;3648;50.614;13.830;2022-08-21T14:48:40;22.70;1.00
7214;DHT22;3648;50.614;13.830;2022-08-21T14:51:08;22.70;1.00
7214;DHT22;3648;50.614;13.830;2022-08-21T14:53:36;22.70;1.00
7214;DHT22;3648;50.614;13.830;2022-08-21T14:56:03;22.70;1.00
7214;DHT22;3648;50.614;13.830;2022-08-21T14:58:37;22.60;1.00
7214;DHT22;3648;50.614;13.830;2022-08-21T15:01:06;22.40;1.00
7214;DHT22;3648;50.614;13.830;2022-08-21T15:03:35;22.30;1.00
7214;DHT22;3648;50.614;13.830;2022-08-21T15:06:03;22.30;1.00
7214;DHT22;3648;50.614;13.830;2022-08-21T15:08:30;22.30;1.00
7214;DHT22;3648;50.614;13.830;2022-08-21T15:10:58;22.20;1.00
7214;DHT22;3648;50.614;13.830;2022-08-21T15:13:26;22.10;1.00
7214;DHT22;3648;50.614;13.830;2022-08-21T15:15:55;22.10;1.00
7214;DHT22;3648;50.614;13.830;2022-08-21T15:18:25;22.00;1.00
7214;DHT22;3648;50.614;13.830;2022-08-21T15:20:52;21.80;1.00
7214;DHT22;3648;50.614;13.830;2022-08-21T15:23:19;21.80;1.00
7214;DHT22;3648;50.614;13.830;2022-08-21T15:25:48;21.70;1.00
7214;DHT22;3648;50.614;13.830;2022-08-21T15:28:16;21.70;1.00
7214;DHT22;3648;50.614;13.830;2022-08-21T15:30:45;21.60;1.00
7214;DHT22;3648;50.614;13.830;2022-08-21T15:33:14;21.60;1.00
7214;DHT22;3648;50.614;13.830;2022-08-21T15:35:41;21.50;1.00
7214;DHT22;3648;50.614;13.830;2022-08-21T15:38:08;21.50;1.00
7214;DHT22;3648;50.614;13.830;2022-08-21T15:40:36;21.40;1.00
7214;DHT22;3648;50.614;13.830;2022-08-21T15:43:05;21.30;1.00
7214;DHT22;3648;50.614;13.830;2022-08-21T15:45:33;21.30;1.00
7214;DHT22;3648;50.614;13.830;2022-08-21T15:48:00;21.30;1.00
7214;DHT22;3648;50.614;13.830;2022-08-21T15:50:29;21.20;1.00
7214;DHT22;3648;50.614;13.830;2022-08-21T15:52:57;21.20;1.00
7214;DHT22;3648;50.614;13.830;2022-08-21T15:55:24;21.10;1.00
7214;DHT22;3648;50.614;13.830;2022-08-21T15:57:52;21.20;1.00
7214;DHT22;3648;50.614;13.830;2022-08-21T16:00:21;21.10;1.00
7214;DHT22;3648;50.614;13.830;2022-08-21T16:02:52;21.10;1.00
7214;DHT22;3648;50.614;13.830;2022-08-21T16:05:20;21.00;1.00
7214;DHT22;3648;50.614;13.830;2022-08-21T16:07:50;21.00;1.00
7214;DHT22;3648;50.614;13.830;2022-08-21T16:10:20;20.90;1.00
7214;DHT22;3648;50.614;13.830;2022-08-21T16:12:51;20.90;1.00
7214;DHT22;3648;50.614;13.830;2022-08-21T16:15:19;20.90;1.00
7214;DHT22;3648;50.614;13.830;2022-08-21T16:17:48;20.90;1.00
7214;DHT22;3648;50.614;13.830;2022-08-21T16:20:20;20.80;1.00
7214;DHT22;3648;50.614;13.830;2022-08-21T16:22:49;20.80;1.00